createdAt,value
2022-12-25T00:00:54.673Z,14.82
2022-12-25T00:03:21.711Z,14.92
2022-12-25T00:05:48.212Z,15.26
2022-12-25T00:08:14.716Z,15.15
2022-12-25T00:10:45.273Z,14.80
2022-12-25T00:13:12.201Z,14.14
2022-12-25T00:15:41.778Z,13.38
2022-12-25T00:18:08.541Z,12.91
2022-12-25T00:20:36.103Z,12.31
2022-12-25T00:23:02.557Z,11.72
2022-12-25T00:25:30.484Z,11.19
2022-12-25T00:27:56.942Z,10.67
2022-12-25T00:30:23.414Z,11.26
2022-12-25T00:32:49.920Z,11.36
2022-12-25T00:35:16.448Z,10.71
2022-12-25T00:37:42.917Z,11.53
2022-12-25T00:40:09.841Z,12.03
2022-12-25T00:42:36.319Z,11.84
2022-12-25T00:45:02.868Z,11.74
2022-12-25T00:47:29.529Z,12.16
2022-12-25T00:49:56.028Z,11.88
2022-12-25T00:52:22.569Z,11.99
2022-12-25T00:54:49.022Z,11.26
2022-12-25T00:57:16.170Z,11.29
2022-12-25T00:59:42.769Z,11.39
2022-12-25T01:02:09.447Z,11.42
2022-12-25T01:04:36.089Z,10.99
2022-12-25T01:07:02.547Z,11.04
2022-12-25T01:09:29.020Z,10.20
2022-12-25T01:11:55.499Z,10.43
2022-12-25T01:14:22.201Z,10.24
2022-12-25T01:16:48.734Z,10.35
2022-12-25T01:19:15.340Z,12.19
2022-12-25T01:21:41.822Z,11.14
2022-12-25T01:24:08.340Z,10.98
2022-12-25T01:26:34.814Z,10.88
2022-12-25T01:29:01.571Z,10.86
2022-12-25T01:31:28.156Z,10.41
2022-12-25T01:33:54.685Z,10.04
2022-12-25T01:36:24.873Z,9.50
2022-12-25T01:38:53.446Z,9.35
2022-12-25T01:41:22.693Z,9.67
2022-12-25T01:44:01.279Z,9.67
2022-12-25T01:46:29.041Z,9.78
2022-12-25T01:49:00.217Z,9.31
2022-12-25T01:51:39.241Z,8.90
2022-12-25T01:54:15.725Z,8.82
2022-12-25T01:56:47.278Z,8.55
2022-12-25T01:59:18.766Z,9.10
2022-12-25T02:01:46.495Z,8.72
2022-12-25T02:04:24.259Z,9.12
2022-12-25T02:06:52.022Z,9.04
2022-12-25T02:09:18.799Z,8.83
2022-12-25T02:11:46.916Z,9.09
2022-12-25T02:14:13.426Z,9.18
2022-12-25T02:16:56.774Z,9.50
2022-12-25T02:19:51.211Z,9.16
2022-12-25T02:22:34.511Z,9.11
2022-12-25T02:25:24.061Z,9.47
2022-12-25T02:28:03.848Z,9.32
2022-12-25T02:30:37.472Z,9.07
2022-12-25T02:33:14.066Z,8.44
2022-12-25T02:35:45.573Z,9.09
2022-12-25T02:38:32.680Z,8.89
2022-12-25T02:41:07.190Z,8.95
2022-12-25T02:43:41.384Z,9.13
2022-12-25T02:46:14.752Z,8.82
2022-12-25T02:48:49.091Z,8.71
2022-12-25T02:51:20.681Z,9.05
2022-12-25T02:53:51.227Z,8.87
2022-12-25T02:56:22.042Z,8.76
2022-12-25T02:58:49.727Z,8.83
2022-12-25T03:01:19.969Z,8.84
2022-12-25T03:03:54.628Z,8.92
2022-12-25T03:06:27.263Z,8.86
2022-12-25T03:08:58.384Z,8.34
2022-12-25T03:11:25.893Z,8.73
2022-12-25T03:13:58.018Z,8.74
2022-12-25T03:16:24.510Z,8.90
2022-12-25T03:18:51.006Z,8.38
2022-12-25T03:21:17.489Z,8.74
2022-12-25T03:23:49.340Z,9.47
2022-12-25T03:26:16.635Z,8.99
2022-12-25T03:28:43.170Z,9.06
2022-12-25T03:31:20.081Z,9.36
2022-12-25T03:34:04.602Z,9.60
2022-12-25T03:36:47.879Z,9.30
2022-12-25T03:39:33.734Z,9.29
2022-12-25T03:42:05.685Z,8.91
2022-12-25T03:44:47.280Z,9.39
2022-12-25T03:47:19.894Z,10.00
2022-12-25T03:49:55.493Z,10.41
2022-12-25T03:52:22.602Z,10.27
2022-12-25T03:54:56.118Z,10.45
2022-12-25T03:57:22.607Z,10.78
2022-12-25T03:59:49.100Z,10.47
2022-12-25T04:02:15.727Z,10.94
2022-12-25T04:04:42.226Z,11.14
2022-12-25T04:07:08.680Z,10.49
2022-12-25T04:09:35.135Z,10.21
2022-12-25T04:12:03.059Z,10.47
2022-12-25T04:14:49.806Z,10.50
2022-12-25T04:17:36.251Z,10.64
2022-12-25T04:20:22.771Z,10.36
2022-12-25T04:23:09.252Z,10.34
2022-12-25T04:25:36.043Z,9.87
2022-12-25T04:28:03.524Z,9.61
2022-12-25T04:30:29.994Z,9.47
2022-12-25T04:32:59.620Z,9.10
2022-12-25T04:35:26.075Z,9.52
2022-12-25T04:37:52.569Z,9.31
2022-12-25T04:40:19.028Z,8.87
2022-12-25T04:42:45.649Z,8.85
2022-12-25T04:45:12.518Z,8.12
2022-12-25T04:47:39.007Z,7.75
2022-12-25T04:50:06.681Z,7.18
2022-12-25T04:52:38.483Z,7.30
2022-12-25T04:55:06.782Z,7.20
2022-12-25T04:57:33.381Z,7.60
2022-12-25T04:59:59.842Z,7.39
2022-12-25T05:02:26.616Z,7.20
2022-12-25T05:04:53.259Z,7.33
2022-12-25T05:07:19.764Z,7.35
2022-12-25T05:09:46.260Z,7.24
2022-12-25T05:12:13.240Z,6.93
2022-12-25T05:14:39.692Z,7.01
2022-12-25T05:17:06.139Z,6.91
2022-12-25T05:19:32.686Z,6.56
2022-12-25T05:21:59.244Z,6.81
2022-12-25T05:24:26.713Z,6.82
2022-12-25T05:26:53.757Z,6.41
2022-12-25T05:29:20.421Z,6.56
2022-12-25T05:31:46.957Z,7.04
2022-12-25T05:34:13.490Z,7.00
2022-12-25T05:36:39.974Z,7.11
2022-12-25T05:39:06.442Z,7.13
2022-12-25T05:41:34.641Z,6.71
2022-12-25T05:44:02.144Z,7.18
2022-12-25T05:46:28.680Z,6.75
2022-12-25T05:48:55.566Z,6.74
2022-12-25T05:51:22.046Z,6.51
2022-12-25T05:53:48.587Z,6.35
2022-12-25T05:56:15.102Z,6.40
2022-12-25T05:58:41.603Z,6.59
2022-12-25T06:01:14.256Z,6.18
2022-12-25T06:03:40.773Z,6.03
2022-12-25T06:06:07.414Z,5.90
2022-12-25T06:08:34.562Z,6.02
2022-12-25T06:11:05.888Z,5.95
2022-12-25T06:13:33.621Z,5.90
2022-12-25T06:16:03.913Z,6.04
2022-12-25T06:18:30.447Z,5.86
2022-12-25T06:20:56.917Z,5.63
2022-12-25T06:23:23.490Z,5.93
2022-12-25T06:25:49.961Z,5.57
2022-12-25T06:28:16.461Z,5.36
2022-12-25T06:30:42.944Z,5.26
2022-12-25T06:33:09.401Z,5.54
2022-12-25T06:35:39.252Z,5.43
2022-12-25T06:38:06.055Z,5.59
2022-12-25T06:40:32.926Z,5.22
2022-12-25T06:42:59.386Z,5.43
2022-12-25T06:45:25.932Z,5.54
2022-12-25T06:47:52.424Z,4.84
2022-12-25T06:50:18.893Z,5.10
2022-12-25T06:52:45.496Z,5.25
2022-12-25T06:55:12.062Z,5.49
2022-12-25T06:57:38.581Z,5.26
2022-12-25T07:00:05.897Z,5.50
2022-12-25T07:02:34.346Z,5.43
2022-12-25T07:05:03.021Z,5.54
2022-12-25T07:07:29.508Z,5.23
2022-12-25T07:09:55.984Z,5.34
2022-12-25T07:12:23.824Z,5.28
2022-12-25T07:14:53.199Z,5.35
2022-12-25T07:17:20.871Z,5.66
2022-12-25T07:19:47.560Z,5.54
2022-12-25T07:22:15.303Z,5.58
2022-12-25T07:24:41.981Z,5.47
2022-12-25T07:27:08.936Z,5.72
2022-12-25T07:29:35.391Z,5.69
2022-12-25T07:32:01.929Z,5.82
2022-12-25T07:34:28.463Z,5.77
2022-12-25T07:36:55.244Z,5.84
2022-12-25T07:39:21.696Z,5.91
2022-12-25T07:41:48.242Z,5.91
2022-12-25T07:44:15.424Z,6.08
2022-12-25T07:46:42.304Z,6.17
2022-12-25T07:49:10.232Z,6.55
2022-12-25T07:51:36.710Z,6.65
2022-12-25T07:54:03.273Z,6.99
2022-12-25T07:56:29.834Z,7.37
2022-12-25T07:58:56.627Z,7.57
2022-12-25T08:01:25.519Z,7.66
2022-12-25T08:03:55.043Z,8.06
2022-12-25T08:06:23.745Z,7.83
2022-12-25T08:08:50.258Z,8.34
2022-12-25T08:11:16.701Z,8.66
2022-12-25T08:13:43.196Z,8.62
2022-12-25T08:16:10.782Z,8.85
2022-12-25T08:18:38.868Z,9.12
2022-12-25T08:21:08.767Z,9.03
2022-12-25T08:23:37.844Z,9.63
2022-12-25T08:26:06.253Z,9.33
2022-12-25T08:28:33.420Z,9.83
2022-12-25T08:31:05.343Z,9.77
2022-12-25T08:33:31.874Z,10.16
2022-12-25T08:36:02.948Z,10.91
2022-12-25T08:38:29.404Z,10.62
2022-12-25T08:40:55.915Z,10.59
2022-12-25T08:43:22.424Z,10.03
2022-12-25T08:45:49.215Z,9.23
2022-12-25T08:48:15.778Z,9.27
2022-12-25T08:50:52.864Z,9.33
2022-12-25T08:53:20.505Z,9.37
2022-12-25T08:55:47.002Z,9.83
2022-12-25T08:58:13.975Z,10.00
2022-12-25T09:00:41.273Z,10.67
2022-12-25T09:03:08.267Z,10.80
2022-12-25T09:05:38.137Z,10.98
2022-12-25T09:08:04.849Z,10.61
2022-12-25T09:10:34.663Z,10.15
2022-12-25T09:13:01.312Z,9.63
2022-12-25T09:15:27.869Z,9.50
2022-12-25T09:17:54.445Z,9.24
2022-12-25T09:20:21.008Z,9.67
2022-12-25T09:22:47.739Z,9.49
2022-12-25T09:25:14.270Z,9.45
2022-12-25T09:27:40.754Z,9.26
2022-12-25T09:30:07.746Z,9.30
2022-12-25T09:32:34.296Z,8.66
2022-12-25T09:35:00.794Z,8.81
2022-12-25T09:37:28.647Z,9.69
2022-12-25T09:39:55.160Z,9.20
2022-12-25T09:42:30.991Z,9.72
2022-12-25T09:45:11.801Z,9.77
2022-12-25T09:47:43.998Z,9.94
2022-12-25T09:50:42.218Z,9.79
2022-12-25T09:53:21.215Z,10.05
2022-12-25T09:56:03.827Z,9.57
2022-12-25T09:58:34.252Z,9.64
2022-12-25T10:01:12.802Z,9.72
2022-12-25T10:03:45.258Z,9.55
2022-12-25T10:06:31.373Z,9.66
2022-12-25T10:09:08.135Z,9.59
2022-12-25T10:12:16.298Z,10.07
2022-12-25T10:15:18.727Z,10.44
2022-12-25T10:18:28.225Z,11.24
2022-12-25T10:20:58.385Z,11.65
2022-12-25T10:23:42.980Z,12.87
2022-12-25T10:26:18.594Z,13.55
2022-12-25T10:28:50.955Z,13.33
2022-12-25T10:31:22.875Z,12.85
2022-12-25T10:33:52.326Z,13.46
2022-12-25T10:36:25.146Z,13.76
2022-12-25T10:38:53.060Z,13.51
2022-12-25T10:41:39.341Z,13.63
2022-12-25T10:44:17.365Z,13.03
2022-12-25T10:46:49.014Z,12.39
2022-12-25T10:49:19.465Z,13.22
2022-12-25T10:51:46.180Z,12.77
2022-12-25T10:54:22.155Z,13.92
2022-12-25T10:57:10.207Z,14.75
2022-12-25T10:59:48.795Z,14.40
2022-12-25T11:02:29.936Z,14.22
2022-12-25T11:05:11.167Z,13.89
2022-12-25T11:07:45.320Z,13.40
2022-12-25T11:10:21.994Z,13.69
2022-12-25T11:12:49.370Z,13.87
2022-12-25T11:15:34.148Z,13.74
2022-12-25T11:18:00.739Z,14.83
2022-12-25T11:20:27.683Z,13.59
2022-12-25T11:22:54.166Z,12.94
2022-12-25T11:25:26.610Z,12.26
2022-12-25T11:28:01.516Z,12.82
2022-12-25T11:30:32.325Z,12.95
2022-12-25T11:33:06.683Z,12.29
2022-12-25T11:35:48.775Z,11.94
2022-12-25T11:38:15.348Z,12.21
2022-12-25T11:40:49.002Z,11.84
2022-12-25T11:43:38.405Z,12.47
2022-12-25T11:46:18.164Z,12.42
2022-12-25T11:48:51.453Z,12.02
2022-12-25T11:51:20.464Z,11.24
2022-12-25T11:53:48.796Z,11.43
2022-12-25T11:56:20.354Z,10.71
2022-12-25T11:58:52.366Z,11.56
2022-12-25T12:01:41.939Z,11.51
2022-12-25T12:04:29.446Z,10.93
2022-12-25T12:07:21.124Z,10.94
2022-12-25T12:09:52.715Z,10.45
2022-12-25T12:12:53.145Z,10.84
2022-12-25T12:15:31.337Z,11.59
2022-12-25T12:18:20.698Z,11.74
2022-12-25T12:21:15.948Z,11.73
2022-12-25T12:24:16.130Z,12.70
2022-12-25T12:26:46.077Z,11.79
2022-12-25T12:29:28.928Z,12.06
2022-12-25T12:32:01.745Z,12.02
2022-12-25T12:34:43.625Z,11.66
2022-12-25T12:37:30.380Z,11.99
2022-12-25T12:39:58.090Z,11.90
2022-12-25T12:42:47.358Z,12.28
2022-12-25T12:45:23.204Z,11.98
2022-12-25T12:47:52.987Z,11.51
2022-12-25T12:50:38.155Z,11.68
2022-12-25T12:53:23.044Z,12.23
2022-12-25T12:55:51.302Z,12.74
2022-12-25T12:58:35.187Z,11.67
2022-12-25T13:01:39.740Z,12.28
2022-12-25T13:04:30.582Z,13.99
2022-12-25T13:07:21.901Z,13.82
2022-12-25T13:10:11.972Z,15.11
2022-12-25T13:12:38.620Z,15.29
2022-12-25T13:15:13.634Z,14.89
2022-12-25T13:17:44.992Z,14.85
2022-12-25T13:20:55.745Z,14.46
2022-12-25T13:23:30.032Z,14.69
2022-12-25T13:25:59.588Z,15.77
2022-12-25T13:28:27.204Z,14.94
2022-12-25T13:30:53.752Z,15.06
2022-12-25T13:33:20.404Z,17.59
2022-12-25T13:35:47.400Z,16.61
2022-12-25T13:38:17.211Z,15.20
2022-12-25T13:40:53.009Z,15.79
2022-12-25T13:43:19.562Z,15.61
2022-12-25T13:45:54.478Z,15.98
2022-12-25T13:48:21.429Z,15.46
2022-12-25T13:50:57.695Z,15.54
2022-12-25T13:53:24.213Z,15.88
2022-12-25T13:55:53.350Z,15.44
2022-12-25T13:58:28.581Z,15.48
2022-12-25T14:00:58.462Z,15.23
2022-12-25T14:03:39.496Z,15.20
2022-12-25T14:06:28.062Z,15.09
2022-12-25T14:08:56.745Z,15.24
2022-12-25T14:11:26.820Z,14.61
2022-12-25T14:13:59.547Z,14.98
2022-12-25T14:16:27.491Z,14.71
2022-12-25T14:19:00.530Z,14.43
2022-12-25T14:21:31.632Z,14.30
2022-12-25T14:23:59.395Z,14.70
2022-12-25T14:26:32.685Z,15.01
2022-12-25T14:29:17.560Z,15.42
2022-12-25T14:31:47.179Z,15.03
2022-12-25T14:34:20.866Z,14.69
2022-12-25T14:36:48.807Z,14.92
2022-12-25T14:39:34.704Z,15.88
2022-12-25T14:42:31.402Z,16.19
2022-12-25T14:45:25.766Z,17.04
2022-12-25T14:47:57.261Z,17.23
2022-12-25T14:50:31.246Z,16.96
2022-12-25T14:52:59.518Z,16.12
2022-12-25T14:55:28.687Z,15.23
2022-12-25T14:57:58.767Z,16.79
2022-12-25T15:00:25.221Z,16.37
2022-12-25T15:02:55.243Z,15.26
2022-12-25T15:05:29.528Z,15.43
2022-12-25T15:08:08.204Z,16.17
2022-12-25T15:13:22.578Z,16.03
2022-12-25T15:16:11.484Z,15.83
2022-12-25T15:18:45.000Z,16.01
2022-12-25T15:21:30.934Z,15.42
2022-12-25T15:23:59.602Z,15.23
2022-12-25T15:26:28.400Z,15.81
2022-12-25T15:28:54.869Z,15.84
2022-12-25T15:31:29.837Z,14.91
2022-12-25T15:33:59.475Z,15.11
2022-12-25T15:36:27.466Z,16.14
2022-12-25T15:38:54.850Z,16.40
2022-12-25T15:41:40.505Z,16.11
2022-12-25T15:44:07.831Z,16.09
2022-12-25T15:46:34.466Z,16.37
2022-12-25T15:49:01.155Z,17.18
2022-12-25T15:51:27.699Z,17.93
2022-12-25T15:53:54.333Z,17.61
2022-12-25T15:56:23.197Z,17.58
2022-12-25T15:58:49.835Z,18.15
2022-12-25T16:01:19.274Z,17.48
2022-12-25T16:03:47.216Z,17.43
2022-12-25T16:06:16.621Z,17.49
2022-12-25T16:08:43.657Z,17.70
2022-12-25T16:11:11.463Z,17.14
2022-12-25T16:13:38.002Z,17.31
2022-12-25T16:16:05.067Z,17.36
2022-12-25T16:18:31.654Z,16.84
2022-12-25T16:20:59.483Z,16.46
2022-12-25T16:23:26.050Z,17.26
2022-12-25T16:25:52.531Z,16.72
2022-12-25T16:28:19.019Z,15.65
2022-12-25T16:30:45.550Z,15.87
2022-12-25T16:33:12.184Z,15.44
2022-12-25T16:35:38.758Z,15.86
2022-12-25T16:38:05.279Z,15.74
2022-12-25T16:40:32.223Z,16.21
2022-12-25T16:42:58.953Z,16.00
2022-12-25T16:45:25.498Z,15.71
2022-12-25T16:47:51.988Z,14.33
2022-12-25T16:50:18.600Z,13.20
2022-12-25T16:52:45.192Z,11.76
2022-12-25T16:55:11.733Z,11.71
2022-12-25T16:57:38.280Z,11.84
2022-12-25T17:00:05.973Z,11.26
2022-12-25T17:02:32.727Z,10.65
2022-12-25T17:04:59.328Z,10.63
2022-12-25T17:07:26.710Z,10.51
2022-12-25T17:09:53.163Z,9.80
2022-12-25T17:12:19.626Z,8.85
2022-12-25T17:14:46.195Z,7.95
2022-12-25T17:17:12.642Z,8.12
2022-12-25T17:19:39.208Z,8.77
2022-12-25T17:22:05.699Z,8.24
2022-12-25T17:24:32.197Z,7.86
2022-12-25T17:26:58.706Z,7.78
2022-12-25T17:29:25.236Z,7.74
2022-12-25T17:31:52.029Z,7.66
2022-12-25T17:34:18.746Z,8.13
2022-12-25T17:36:45.282Z,8.38
2022-12-25T17:39:11.860Z,8.33
2022-12-25T17:41:38.398Z,10.65
2022-12-25T17:44:05.234Z,9.03
2022-12-25T17:46:31.855Z,9.96
2022-12-25T17:49:00.285Z,9.43
2022-12-25T17:51:29.120Z,10.76
2022-12-25T17:53:58.873Z,13.53
2022-12-25T17:56:26.064Z,11.54
2022-12-25T17:58:56.642Z,10.78
2022-12-25T18:01:24.725Z,11.03
2022-12-25T18:03:51.983Z,10.90
2022-12-25T18:06:22.154Z,10.58
2022-12-25T18:08:49.468Z,12.64
2022-12-25T18:11:20.499Z,11.98
2022-12-25T18:13:49.418Z,12.07
2022-12-25T18:16:16.960Z,11.01
2022-12-25T18:18:51.182Z,11.14
2022-12-25T18:21:19.495Z,9.93
2022-12-25T18:23:46.038Z,10.26
2022-12-25T18:26:12.644Z,9.59
2022-12-25T18:28:40.301Z,9.48
2022-12-25T18:31:10.991Z,9.33
2022-12-25T18:33:37.549Z,9.69
2022-12-25T18:36:04.574Z,10.09
2022-12-25T18:38:31.052Z,9.96
2022-12-25T18:40:57.639Z,9.84
2022-12-25T18:43:53.960Z,10.39
2022-12-25T18:46:10.873Z,10.52
2022-12-25T18:48:38.221Z,10.67
2022-12-25T18:51:11.488Z,10.14
2022-12-25T18:53:38.294Z,10.48
2022-12-25T18:56:10.939Z,11.87
2022-12-25T18:58:38.218Z,11.14
2022-12-25T19:01:20.490Z,11.61
2022-12-25T19:03:47.647Z,11.29
2022-12-25T19:06:26.723Z,11.32
2022-12-25T19:08:53.643Z,11.56
2022-12-25T19:11:21.189Z,11.83
2022-12-25T19:13:47.733Z,11.55
2022-12-25T19:16:14.330Z,11.96
2022-12-25T19:18:42.676Z,17.73
2022-12-25T19:21:09.567Z,17.76
2022-12-25T19:23:37.375Z,16.61
2022-12-25T19:26:05.633Z,12.20
2022-12-25T19:28:32.163Z,13.85
2022-12-25T19:31:00.400Z,14.55
2022-12-25T19:33:26.976Z,14.11
2022-12-25T19:35:53.495Z,14.07
2022-12-25T19:38:19.975Z,14.11
2022-12-25T19:40:48.192Z,13.65
2022-12-25T19:43:14.772Z,14.06
2022-12-25T19:45:41.363Z,13.27
2022-12-25T19:48:07.892Z,13.28
2022-12-25T19:50:37.160Z,12.22
2022-12-25T19:53:03.615Z,11.85
2022-12-25T19:55:31.818Z,13.69
2022-12-25T19:57:58.290Z,15.52
2022-12-25T20:00:24.766Z,16.53
2022-12-25T20:02:51.370Z,14.61
2022-12-25T20:05:17.936Z,12.69
2022-12-25T20:07:44.386Z,12.55
2022-12-25T20:10:10.845Z,11.94
2022-12-25T20:12:37.362Z,11.51
2022-12-25T20:15:04.107Z,11.60
2022-12-25T20:17:30.616Z,11.37
2022-12-25T20:19:57.100Z,11.53
2022-12-25T20:22:23.599Z,13.25
2022-12-25T20:24:50.113Z,14.10
2022-12-25T20:27:16.628Z,14.26
2022-12-25T20:29:43.133Z,19.07
2022-12-25T20:32:09.674Z,17.43
2022-12-25T20:34:36.653Z,14.08
2022-12-25T20:37:03.122Z,14.58
2022-12-25T20:39:29.660Z,14.40
2022-12-25T20:41:56.164Z,15.97
2022-12-25T20:44:22.932Z,15.78
2022-12-25T20:46:49.394Z,12.82
2022-12-25T20:49:15.869Z,13.03
2022-12-25T20:51:42.365Z,11.27
2022-12-25T20:54:10.276Z,11.33
2022-12-25T20:56:37.489Z,12.56
2022-12-25T20:59:03.951Z,12.26
2022-12-25T21:01:31.063Z,12.21
2022-12-25T21:03:58.290Z,11.24
2022-12-25T21:06:24.850Z,10.66
2022-12-25T21:08:51.356Z,10.83
2022-12-25T21:11:18.276Z,10.49
2022-12-25T21:13:45.504Z,11.40
2022-12-25T21:16:15.824Z,11.69
2022-12-25T21:18:42.507Z,10.75
2022-12-25T21:21:10.073Z,11.59
2022-12-25T21:23:39.423Z,10.93
2022-12-25T21:26:27.038Z,12.03
2022-12-25T21:28:55.966Z,11.58
2022-12-25T21:31:23.977Z,12.59
2022-12-25T21:33:50.599Z,13.84
2022-12-25T21:36:21.269Z,13.96
2022-12-25T21:38:47.872Z,13.30
2022-12-25T21:41:14.944Z,14.35
2022-12-25T21:43:41.449Z,13.80
2022-12-25T21:46:10.995Z,14.25
2022-12-25T21:48:38.778Z,15.01
2022-12-25T21:51:08.420Z,16.94
2022-12-25T21:53:34.886Z,14.22
2022-12-25T21:56:01.786Z,12.00
2022-12-25T21:58:28.752Z,12.95
2022-12-25T22:00:55.564Z,12.55
2022-12-25T22:03:23.936Z,13.70
2022-12-25T22:05:50.488Z,13.16
2022-12-25T22:08:16.957Z,12.59
2022-12-25T22:10:43.492Z,10.98
2022-12-25T22:13:10.063Z,10.26
2022-12-25T22:15:37.092Z,10.41
2022-12-25T22:18:03.687Z,11.33
2022-12-25T22:20:38.217Z,12.27
2022-12-25T22:23:04.963Z,11.59
2022-12-25T22:25:31.787Z,12.06
2022-12-25T22:27:58.341Z,13.15
2022-12-25T22:30:27.464Z,12.92
2022-12-25T22:32:54.935Z,12.46
2022-12-25T22:35:21.743Z,11.61
2022-12-25T22:37:48.470Z,11.45
2022-12-25T22:40:17.002Z,11.59
2022-12-25T22:42:43.844Z,11.73
2022-12-25T22:45:11.297Z,11.78
2022-12-25T22:47:38.008Z,10.99
2022-12-25T22:50:05.369Z,11.69
2022-12-25T22:52:31.847Z,11.33
2022-12-25T22:54:58.342Z,11.40
2022-12-25T22:57:25.125Z,11.12
2022-12-25T22:59:52.311Z,11.53
2022-12-25T23:02:19.011Z,11.79
2022-12-25T23:04:45.755Z,12.09
2022-12-25T23:07:12.257Z,11.60
2022-12-25T23:09:38.723Z,11.68
2022-12-25T23:12:05.602Z,12.22
2022-12-25T23:14:32.038Z,11.90
2022-12-25T23:16:59.829Z,11.96
2022-12-25T23:19:26.616Z,12.40
2022-12-25T23:21:56.364Z,11.97
2022-12-25T23:24:23.059Z,12.21
2022-12-25T23:26:49.543Z,12.43
2022-12-25T23:29:16.038Z,12.12
2022-12-25T23:31:43.129Z,11.80
2022-12-25T23:34:10.572Z,12.09
2022-12-25T23:36:37.131Z,11.95
2022-12-25T23:39:09.643Z,11.68
2022-12-25T23:41:38.580Z,11.49
2022-12-25T23:44:05.291Z,11.39
2022-12-25T23:46:31.898Z,11.40
2022-12-25T23:48:58.395Z,11.10
2022-12-25T23:51:24.982Z,11.17
2022-12-25T23:53:51.493Z,11.03
2022-12-25T23:56:17.943Z,11.13
2022-12-25T23:58:44.470Z,11.40
